Home   Weather   Germany   Bretten   Past weeks
Flag for Germany

Past Weather in Bretten, Baden-Württemberg, Germany — Yesterday and Last 2 Weeks

Currently: 43 °F. Passing clouds. (Weather station: Mannheim City, Germany). See more current weather

Past Weather in Bretten — Graph

°F

Bretten Temperature Yesterday

Maximum temperature yesterday: 61 °F (at 4:20 pm)
Minimum temperature yesterday: 32 °F (at 5:50 am)
Average temperature yesterday: 49 °F

High & Low Weather Summary for the Past Weeks

 TemperatureHumidityPressure
High68 °F (Feb 24, 2:50 pm)100% (Feb 18, 5:50 am)30.66 "Hg (Feb 18, 5:50 am)
Low30 °F (Mar 1, 6:20 am)26% (Feb 25, 4:50 pm)29.86 "Hg (Feb 18, 5:20 pm)
Average49 °F68%30.30 "Hg
* Reported Feb 16 9:20 am — Mar 3 9:20 am, Bretten. Weather by CustomWeather, © 2021

Note: Actual official high and low records may vary slightly from our data, if they occured in-between our weather recording intervals... More about our weather records

Bretten Weather History for the Previous 24 Hours

Scroll right to see more
 ConditionsComfort  
Time TempWeatherWind HumidityBarometerVisibility
9:20 am
Wed, Mar 3
41 °FSunny.2 mph87%30.42 "Hg10 mi
8:50 am39 °FClear.2 mph87%30.42 "Hg6 mi
8:20 am37 °FSunny.2 mph87%30.42 "Hg10 mi
7:50 am36 °FClear.No wind93%30.42 "Hg5 mi
7:20 am36 °FClear.2 mph93%30.42 "Hg5 mi
6:50 am34 °FClear.No wind93%30.42 "Hg6 mi
6:20 am34 °FClear.No wind93%30.42 "Hg6 mi
5:50 am34 °FClear.No wind93%30.42 "Hg6 mi
8:50 pm
Tue, Mar 2
43 °FClear.No wind71%30.45 "Hg10 mi
8:20 pm45 °FClear.No wind66%30.45 "Hg10 mi
7:50 pm46 °FClear.2 mph62%30.45 "Hg10 mi
7:20 pm48 °FClear.No wind62%30.45 "Hg10 mi
6:50 pm50 °FClear.No wind54%30.45 "Hg10 mi
6:20 pm54 °FClear.No wind44%30.42 "Hg10 mi
5:50 pm57 °FSunny.No wind39%30.42 "Hg10 mi
5:20 pm61 °FSunny.No wind34%30.42 "Hg10 mi
4:50 pm59 °FSunny.1 mph36%30.42 "Hg10 mi
4:20 pm61 °FSunny.1 mph34%30.42 "Hg10 mi
3:50 pm59 °FSunny.1 mph39%30.45 "Hg10 mi
3:20 pm59 °FSunny.2 mph39%30.45 "Hg10 mi
2:50 pm57 °FSunny.2 mph44%30.45 "Hg10 mi
2:20 pm57 °FSunny.2 mph48%30.45 "Hg10 mi
1:50 pm57 °FSunny.3 mph48%30.45 "Hg10 mi
12:50 pm54 °FSunny.3 mph54%30.48 "Hg10 mi
12:20 pm54 °FSunny.2 mph51%30.48 "Hg10 mi
11:50 am52 °FSunny.1 mph54%30.48 "Hg10 mi
11:20 am52 °FSunny.1 mph58%30.48 "Hg10 mi
10:50 am50 °FSunny.2 mph58%30.48 "Hg10 mi
10:20 am48 °FSunny.2 mph66%30.48 "Hg10 mi
Weather by CustomWeather, © 2021

See weather overview